sensor_id;sensor_type;location;lat;lon;timestamp;P1;durP1;ratioP1;P2;durP2;ratioP2
76202;SDS011;64985;46.364;17.008;2022-11-25T00:02:36;18.17;;;14.10;;
76202;SDS011;64985;46.364;17.008;2022-11-25T00:05:44;26.08;;;15.73;;
76202;SDS011;64985;46.364;17.008;2022-11-25T00:08:47;23.17;;;15.75;;
76202;SDS011;64985;46.364;17.008;2022-11-25T00:11:51;22.92;;;14.95;;
76202;SDS011;64985;46.364;17.008;2022-11-25T00:14:53;18.30;;;13.98;;
76202;SDS011;64985;46.364;17.008;2022-11-25T00:17:54;12.38;;;9.75;;
76202;SDS011;64985;46.364;17.008;2022-11-25T00:20:57;26.42;;;16.80;;
76202;SDS011;64985;46.364;17.008;2022-11-25T00:33:07;20.75;;;13.80;;
76202;SDS011;64985;46.364;17.008;2022-11-25T00:36:16;22.17;;;14.80;;
76202;SDS011;64985;46.364;17.008;2022-11-25T00:39:20;23.45;;;15.07;;
76202;SDS011;64985;46.364;17.008;2022-11-25T00:42:24;96.35;;;25.35;;
76202;SDS011;64985;46.364;17.008;2022-11-25T00:45:45;33.58;;;16.75;;
76202;SDS011;64985;46.364;17.008;2022-11-25T00:48:48;22.80;;;15.48;;
76202;SDS011;64985;46.364;17.008;2022-11-25T00:51:50;19.30;;;14.30;;
76202;SDS011;64985;46.364;17.008;2022-11-25T00:54:52;21.38;;;15.85;;
76202;SDS011;64985;46.364;17.008;2022-11-25T00:57:55;25.50;;;16.70;;
76202;SDS011;64985;46.364;17.008;2022-11-25T01:01:00;22.55;;;16.10;;
76202;SDS011;64985;46.364;17.008;2022-11-25T01:04:03;92.47;;;23.55;;
76202;SDS011;64985;46.364;17.008;2022-11-25T01:07:05;26.08;;;17.02;;
76202;SDS011;64985;46.364;17.008;2022-11-25T01:10:08;36.17;;;18.75;;
76202;SDS011;64985;46.364;17.008;2022-11-25T01:13:10;29.38;;;17.90;;
76202;SDS011;64985;46.364;17.008;2022-11-25T01:16:13;56.08;;;24.45;;
76202;SDS011;64985;46.364;17.008;2022-11-25T01:19:18;89.38;;;28.85;;
76202;SDS011;64985;46.364;17.008;2022-11-25T01:22:20;111.30;;;30.08;;
76202;SDS011;64985;46.364;17.008;2022-11-25T01:25:22;213.05;;;39.53;;
76202;SDS011;64985;46.364;17.008;2022-11-25T01:28:24;145.82;;;28.77;;
76202;SDS011;64985;46.364;17.008;2022-11-25T01:31:27;77.40;;;22.02;;
76202;SDS011;64985;46.364;17.008;2022-11-25T01:34:31;61.58;;;23.63;;
76202;SDS011;64985;46.364;17.008;2022-11-25T01:37:35;30.35;;;19.33;;
76202;SDS011;64985;46.364;17.008;2022-11-25T01:40:38;25.52;;;18.85;;
76202;SDS011;64985;46.364;17.008;2022-11-25T01:43:40;165.65;;;34.22;;
76202;SDS011;64985;46.364;17.008;2022-11-25T01:53:07;50.60;;;20.52;;
76202;SDS011;64985;46.364;17.008;2022-11-25T01:56:12;140.30;;;30.50;;
76202;SDS011;64985;46.364;17.008;2022-11-25T01:59:15;133.73;;;27.60;;
76202;SDS011;64985;46.364;17.008;2022-11-25T02:02:17;69.75;;;18.77;;
76202;SDS011;64985;46.364;17.008;2022-11-25T02:05:22;33.58;;;15.40;;
76202;SDS011;64985;46.364;17.008;2022-11-25T02:08:47;28.00;;;16.52;;
76202;SDS011;64985;46.364;17.008;2022-11-25T02:11:52;142.30;;;30.92;;
76202;SDS011;64985;46.364;17.008;2022-11-25T02:14:55;75.22;;;21.05;;
76202;SDS011;64985;46.364;17.008;2022-11-25T02:17:59;161.35;;;30.40;;
76202;SDS011;64985;46.364;17.008;2022-11-25T02:21:01;70.22;;;18.67;;
76202;SDS011;64985;46.364;17.008;2022-11-25T02:24:06;105.85;;;25.77;;
76202;SDS011;64985;46.364;17.008;2022-11-25T02:27:10;82.88;;;20.58;;
76202;SDS011;64985;46.364;17.008;2022-11-25T02:30:15;114.30;;;22.45;;
76202;SDS011;64985;46.364;17.008;2022-11-25T02:33:17;107.28;;;26.98;;
76202;SDS011;64985;46.364;17.008;2022-11-25T02:36:20;48.75;;;22.00;;
76202;SDS011;64985;46.364;17.008;2022-11-25T02:39:23;43.55;;;19.48;;
76202;SDS011;64985;46.364;17.008;2022-11-25T02:45:30;108.80;;;20.35;;
76202;SDS011;64985;46.364;17.008;2022-11-25T02:48:40;128.48;;;24.60;;
76202;SDS011;64985;46.364;17.008;2022-11-25T02:52:03;120.53;;;22.40;;
76202;SDS011;64985;46.364;17.008;2022-11-25T02:55:05;60.38;;;15.23;;
76202;SDS011;64985;46.364;17.008;2022-11-25T02:58:07;139.50;;;23.15;;
76202;SDS011;64985;46.364;17.008;2022-11-25T03:01:10;124.38;;;24.75;;
76202;SDS011;64985;46.364;17.008;2022-11-25T03:07:14;131.40;;;24.40;;
76202;SDS011;64985;46.364;17.008;2022-11-25T03:10:16;207.65;;;32.47;;
76202;SDS011;64985;46.364;17.008;2022-11-25T03:13:18;125.80;;;25.60;;
76202;SDS011;64985;46.364;17.008;2022-11-25T03:16:20;33.65;;;14.23;;
76202;SDS011;64985;46.364;17.008;2022-11-25T03:19:22;102.30;;;21.90;;
76202;SDS011;64985;46.364;17.008;2022-11-25T03:22:24;47.65;;;13.65;;
76202;SDS011;64985;46.364;17.008;2022-11-25T03:25:26;121.63;;;23.70;;
76202;SDS011;64985;46.364;17.008;2022-11-25T03:31:31;34.40;;;12.80;;
76202;SDS011;64985;46.364;17.008;2022-11-25T03:34:33;31.63;;;12.52;;
76202;SDS011;64985;46.364;17.008;2022-11-25T03:40:37;52.47;;;16.88;;
76202;SDS011;64985;46.364;17.008;2022-11-25T03:43:39;18.80;;;12.63;;
76202;SDS011;64985;46.364;17.008;2022-11-25T03:46:41;29.95;;;15.50;;
76202;SDS011;64985;46.364;17.008;2022-11-25T03:49:43;39.83;;;15.90;;
76202;SDS011;64985;46.364;17.008;2022-11-25T03:52:45;44.63;;;16.65;;
76202;SDS011;64985;46.364;17.008;2022-11-25T03:55:47;25.08;;;14.38;;
76202;SDS011;64985;46.364;17.008;2022-11-25T03:58:50;19.83;;;13.52;;
76202;SDS011;64985;46.364;17.008;2022-11-25T04:01:52;43.72;;;18.00;;
76202;SDS011;64985;46.364;17.008;2022-11-25T04:04:54;29.30;;;15.07;;
76202;SDS011;64985;46.364;17.008;2022-11-25T04:07:56;41.65;;;20.42;;
76202;SDS011;64985;46.364;17.008;2022-11-25T04:10:58;41.13;;;18.83;;
76202;SDS011;64985;46.364;17.008;2022-11-25T04:14:00;72.68;;;27.58;;
76202;SDS011;64985;46.364;17.008;2022-11-25T04:17:02;67.00;;;19.10;;
76202;SDS011;64985;46.364;17.008;2022-11-25T04:20:05;87.93;;;23.90;;
76202;SDS011;64985;46.364;17.008;2022-11-25T04:23:08;102.38;;;23.98;;
76202;SDS011;64985;46.364;17.008;2022-11-25T04:26:12;116.15;;;25.63;;
76202;SDS011;64985;46.364;17.008;2022-11-25T04:29:14;147.35;;;28.92;;
76202;SDS011;64985;46.364;17.008;2022-11-25T04:32:16;89.65;;;22.77;;
76202;SDS011;64985;46.364;17.008;2022-11-25T04:35:18;57.60;;;17.75;;
76202;SDS011;64985;46.364;17.008;2022-11-25T04:38:20;79.85;;;24.92;;
76202;SDS011;64985;46.364;17.008;2022-11-25T04:41:22;97.13;;;23.15;;
76202;SDS011;64985;46.364;17.008;2022-11-25T04:44:24;98.38;;;25.00;;
76202;SDS011;64985;46.364;17.008;2022-11-25T04:47:27;136.15;;;26.48;;
76202;SDS011;64985;46.364;17.008;2022-11-25T04:50:30;76.47;;;22.85;;
76202;SDS011;64985;46.364;17.008;2022-11-25T04:53:32;35.58;;;15.90;;
76202;SDS011;64985;46.364;17.008;2022-11-25T04:56:34;47.88;;;17.17;;
76202;SDS011;64985;46.364;17.008;2022-11-25T04:59:36;57.20;;;19.35;;
76202;SDS011;64985;46.364;17.008;2022-11-25T05:02:41;35.10;;;14.98;;
76202;SDS011;64985;46.364;17.008;2022-11-25T05:05:43;25.20;;;14.43;;
76202;SDS011;64985;46.364;17.008;2022-11-25T05:08:48;40.92;;;18.33;;
76202;SDS011;64985;46.364;17.008;2022-11-25T05:11:51;34.20;;;19.92;;
76202;SDS011;64985;46.364;17.008;2022-11-25T05:14:53;146.00;;;30.15;;
76202;SDS011;64985;46.364;17.008;2022-11-25T05:21:00;77.83;;;22.23;;
76202;SDS011;64985;46.364;17.008;2022-11-25T05:24:04;97.20;;;24.13;;
76202;SDS011;64985;46.364;17.008;2022-11-25T05:27:06;90.72;;;23.48;;
76202;SDS011;64985;46.364;17.008;2022-11-25T05:30:09;63.75;;;21.80;;
76202;SDS011;64985;46.364;17.008;2022-11-25T05:36:13;108.63;;;22.00;;
76202;SDS011;64985;46.364;17.008;2022-11-25T05:39:15;127.13;;;27.00;;
76202;SDS011;64985;46.364;17.008;2022-11-25T05:45:19;88.65;;;23.90;;
76202;SDS011;64985;46.364;17.008;2022-11-25T05:48:22;82.50;;;22.42;;
76202;SDS011;64985;46.364;17.008;2022-11-25T05:51:24;67.43;;;23.23;;
76202;SDS011;64985;46.364;17.008;2022-11-25T05:54:26;123.32;;;29.25;;
76202;SDS011;64985;46.364;17.008;2022-11-25T05:57:28;114.53;;;30.45;;
76202;SDS011;64985;46.364;17.008;2022-11-25T06:00:36;121.32;;;31.95;;
76202;SDS011;64985;46.364;17.008;2022-11-25T06:03:39;95.05;;;26.13;;
76202;SDS011;64985;46.364;17.008;2022-11-25T06:06:41;93.43;;;27.75;;
76202;SDS011;64985;46.364;17.008;2022-11-25T06:09:43;90.20;;;26.17;;
76202;SDS011;64985;46.364;17.008;2022-11-25T06:12:46;247.27;;;44.30;;
76202;SDS011;64985;46.364;17.008;2022-11-25T06:15:48;169.52;;;41.85;;
76202;SDS011;64985;46.364;17.008;2022-11-25T06:18:51;58.65;;;23.83;;
76202;SDS011;64985;46.364;17.008;2022-11-25T06:21:52;83.03;;;28.40;;
76202;SDS011;64985;46.364;17.008;2022-11-25T06:24:54;43.03;;;25.30;;
76202;SDS011;64985;46.364;17.008;2022-11-25T06:28:03;49.95;;;24.00;;
76202;SDS011;64985;46.364;17.008;2022-11-25T06:31:14;56.65;;;24.35;;
76202;SDS011;64985;46.364;17.008;2022-11-25T06:34:18;54.42;;;25.50;;
76202;SDS011;64985;46.364;17.008;2022-11-25T06:37:20;86.22;;;28.02;;
76202;SDS011;64985;46.364;17.008;2022-11-25T06:43:24;103.53;;;28.67;;
76202;SDS011;64985;46.364;17.008;2022-11-25T06:46:26;84.90;;;26.98;;
76202;SDS011;64985;46.364;17.008;2022-11-25T06:49:28;75.53;;;27.45;;
76202;SDS011;64985;46.364;17.008;2022-11-25T06:52:30;45.78;;;23.50;;
76202;SDS011;64985;46.364;17.008;2022-11-25T06:55:33;48.20;;;23.83;;
76202;SDS011;64985;46.364;17.008;2022-11-25T06:58:35;42.85;;;22.85;;
76202;SDS011;64985;46.364;17.008;2022-11-25T07:01:38;34.78;;;21.27;;
76202;SDS011;64985;46.364;17.008;2022-11-25T07:07:42;35.95;;;21.15;;
76202;SDS011;64985;46.364;17.008;2022-11-25T07:10:44;30.38;;;19.58;;
76202;SDS011;64985;46.364;17.008;2022-11-25T07:16:52;36.90;;;21.10;;
76202;SDS011;64985;46.364;17.008;2022-11-25T07:19:54;31.80;;;19.88;;
76202;SDS011;64985;46.364;17.008;2022-11-25T07:22:56;31.80;;;19.80;;
76202;SDS011;64985;46.364;17.008;2022-11-25T07:26:08;27.63;;;18.17;;
76202;SDS011;64985;46.364;17.008;2022-11-25T07:29:13;30.23;;;19.40;;
76202;SDS011;64985;46.364;17.008;2022-11-25T07:32:36;29.35;;;18.58;;
76202;SDS011;64985;46.364;17.008;2022-11-25T07:35:38;29.98;;;18.60;;
76202;SDS011;64985;46.364;17.008;2022-11-25T07:38:40;26.75;;;18.38;;
76202;SDS011;64985;46.364;17.008;2022-11-25T07:41:51;30.77;;;19.35;;
76202;SDS011;64985;46.364;17.008;2022-11-25T07:44:54;27.35;;;18.27;;
76202;SDS011;64985;46.364;17.008;2022-11-25T07:47:56;25.88;;;18.23;;
76202;SDS011;64985;46.364;17.008;2022-11-25T07:50:58;30.35;;;18.90;;
76202;SDS011;64985;46.364;17.008;2022-11-25T07:54:00;27.38;;;18.90;;
76202;SDS011;64985;46.364;17.008;2022-11-25T07:57:04;28.42;;;18.92;;
76202;SDS011;64985;46.364;17.008;2022-11-25T08:00:06;31.50;;;19.30;;
76202;SDS011;64985;46.364;17.008;2022-11-25T08:03:09;31.15;;;20.60;;
76202;SDS011;64985;46.364;17.008;2022-11-25T08:06:12;37.97;;;23.05;;
76202;SDS011;64985;46.364;17.008;2022-11-25T08:09:18;34.90;;;22.63;;
76202;SDS011;64985;46.364;17.008;2022-11-25T08:12:21;38.38;;;23.27;;
76202;SDS011;64985;46.364;17.008;2022-11-25T08:15:23;35.63;;;24.13;;
76202;SDS011;64985;46.364;17.008;2022-11-25T08:18:26;36.47;;;25.08;;
76202;SDS011;64985;46.364;17.008;2022-11-25T08:21:28;40.08;;;27.08;;
76202;SDS011;64985;46.364;17.008;2022-11-25T08:24:30;59.50;;;30.00;;
76202;SDS011;64985;46.364;17.008;2022-11-25T08:27:32;39.33;;;27.08;;
76202;SDS011;64985;46.364;17.008;2022-11-25T08:30:34;36.03;;;25.27;;
76202;SDS011;64985;46.364;17.008;2022-11-25T08:33:37;42.85;;;29.75;;
76202;SDS011;64985;46.364;17.008;2022-11-25T08:36:39;44.97;;;30.25;;
76202;SDS011;64985;46.364;17.008;2022-11-25T08:39:48;58.92;;;38.03;;
76202;SDS011;64985;46.364;17.008;2022-11-25T08:42:54;105.68;;;41.30;;
76202;SDS011;64985;46.364;17.008;2022-11-25T08:45:56;725.15;;;147.35;;
76202;SDS011;64985;46.364;17.008;2022-11-25T08:48:58;301.20;;;73.32;;
76202;SDS011;64985;46.364;17.008;2022-11-25T08:52:00;60.10;;;46.10;;
76202;SDS011;64985;46.364;17.008;2022-11-25T08:55:02;55.00;;;46.17;;
76202;SDS011;64985;46.364;17.008;2022-11-25T08:58:05;37.67;;;31.65;;
76202;SDS011;64985;46.364;17.008;2022-11-25T09:01:11;25.40;;;22.40;;
76202;SDS011;64985;46.364;17.008;2022-11-25T09:04:13;16.20;;;13.38;;
76202;SDS011;64985;46.364;17.008;2022-11-25T09:07:15;11.32;;;9.65;;
76202;SDS011;64985;46.364;17.008;2022-11-25T09:10:18;13.15;;;11.75;;
76202;SDS011;64985;46.364;17.008;2022-11-25T09:13:20;13.20;;;11.88;;
76202;SDS011;64985;46.364;17.008;2022-11-25T09:16:22;12.82;;;11.63;;
76202;SDS011;64985;46.364;17.008;2022-11-25T09:19:27;12.70;;;11.40;;
76202;SDS011;64985;46.364;17.008;2022-11-25T09:22:29;15.55;;;13.02;;
76202;SDS011;64985;46.364;17.008;2022-11-25T09:25:32;14.10;;;12.48;;
76202;SDS011;64985;46.364;17.008;2022-11-25T09:28:35;12.98;;;11.65;;
76202;SDS011;64985;46.364;17.008;2022-11-25T09:31:37;15.40;;;11.82;;
76202;SDS011;64985;46.364;17.008;2022-11-25T09:34:40;13.95;;;12.50;;
76202;SDS011;64985;46.364;17.008;2022-11-25T09:37:42;14.73;;;13.15;;
76202;SDS011;64985;46.364;17.008;2022-11-25T09:40:48;12.88;;;10.18;;
76202;SDS011;64985;46.364;17.008;2022-11-25T09:44:01;18.80;;;16.50;;
76202;SDS011;64985;46.364;17.008;2022-11-25T09:51:40;24.75;;;19.48;;
76202;SDS011;64985;46.364;17.008;2022-11-25T09:55:04;28.65;;;22.35;;
76202;SDS011;64985;46.364;17.008;2022-11-25T10:01:24;19.63;;;15.55;;
76202;SDS011;64985;46.364;17.008;2022-11-25T10:04:30;16.77;;;13.32;;
76202;SDS011;64985;46.364;17.008;2022-11-25T10:07:48;18.35;;;16.30;;
76202;SDS011;64985;46.364;17.008;2022-11-25T10:11:02;18.15;;;14.38;;
76202;SDS011;64985;46.364;17.008;2022-11-25T10:14:29;14.25;;;12.70;;
76202;SDS011;64985;46.364;17.008;2022-11-25T10:17:44;13.80;;;11.55;;
76202;SDS011;64985;46.364;17.008;2022-11-25T10:20:51;11.93;;;10.77;;
76202;SDS011;64985;46.364;17.008;2022-11-25T10:23:54;12.02;;;10.05;;
76202;SDS011;64985;46.364;17.008;2022-11-25T10:26:58;11.15;;;10.05;;
76202;SDS011;64985;46.364;17.008;2022-11-25T10:30:12;8.73;;;6.03;;
76202;SDS011;64985;46.364;17.008;2022-11-25T10:33:27;7.25;;;5.95;;
76202;SDS011;64985;46.364;17.008;2022-11-25T10:36:33;9.18;;;5.85;;
76202;SDS011;64985;46.364;17.008;2022-11-25T10:39:39;8.07;;;6.38;;
76202;SDS011;64985;46.364;17.008;2022-11-25T10:42:41;10.90;;;6.95;;
76202;SDS011;64985;46.364;17.008;2022-11-25T10:45:53;8.05;;;6.13;;
76202;SDS011;64985;46.364;17.008;2022-11-25T10:52:32;7.68;;;5.93;;
76202;SDS011;64985;46.364;17.008;2022-11-25T10:55:38;8.20;;;6.40;;
76202;SDS011;64985;46.364;17.008;2022-11-25T10:58:40;7.93;;;6.65;;
76202;SDS011;64985;46.364;17.008;2022-11-25T11:08:35;8.30;;;5.75;;
76202;SDS011;64985;46.364;17.008;2022-11-25T11:11:45;5.95;;;4.88;;
76202;SDS011;64985;46.364;17.008;2022-11-25T11:14:49;7.05;;;5.55;;
76202;SDS011;64985;46.364;17.008;2022-11-25T11:17:53;4.80;;;4.18;;
76202;SDS011;64985;46.364;17.008;2022-11-25T11:20:57;5.07;;;4.43;;
76202;SDS011;64985;46.364;17.008;2022-11-25T11:24:01;8.05;;;5.00;;
76202;SDS011;64985;46.364;17.008;2022-11-25T11:27:25;5.85;;;4.70;;
76202;SDS011;64985;46.364;17.008;2022-11-25T11:30:30;5.70;;;5.10;;
76202;SDS011;64985;46.364;17.008;2022-11-25T11:53:13;6.35;;;4.63;;
76202;SDS011;64985;46.364;17.008;2022-11-25T11:59:57;6.30;;;4.63;;
76202;SDS011;64985;46.364;17.008;2022-11-25T12:03:21;6.50;;;4.70;;
76202;SDS011;64985;46.364;17.008;2022-11-25T12:06:27;5.20;;;4.50;;
76202;SDS011;64985;46.364;17.008;2022-11-25T12:09:33;9.23;;;4.38;;
76202;SDS011;64985;46.364;17.008;2022-11-25T12:15:56;7.88;;;5.57;;
76202;SDS011;64985;46.364;17.008;2022-11-25T12:19:07;6.47;;;4.43;;
76202;SDS011;64985;46.364;17.008;2022-11-25T12:22:27;5.10;;;4.60;;
76202;SDS011;64985;46.364;17.008;2022-11-25T12:25:36;4.88;;;3.88;;
76202;SDS011;64985;46.364;17.008;2022-11-25T12:28:42;4.95;;;4.10;;
76202;SDS011;64985;46.364;17.008;2022-11-25T12:31:57;5.95;;;4.22;;
76202;SDS011;64985;46.364;17.008;2022-11-25T12:41:42;4.75;;;4.22;;
76202;SDS011;64985;46.364;17.008;2022-11-25T12:45:04;5.97;;;4.82;;
76202;SDS011;64985;46.364;17.008;2022-11-25T12:48:25;6.25;;;4.45;;
76202;SDS011;64985;46.364;17.008;2022-11-25T12:51:31;5.90;;;3.60;;
76202;SDS011;64985;46.364;17.008;2022-11-25T12:58:34;4.63;;;2.95;;
76202;SDS011;64985;46.364;17.008;2022-11-25T13:12:30;3.85;;;2.63;;
76202;SDS011;64985;46.364;17.008;2022-11-25T13:15:45;3.42;;;2.85;;
76202;SDS011;64985;46.364;17.008;2022-11-25T13:18:50;3.60;;;3.00;;
76202;SDS011;64985;46.364;17.008;2022-11-25T13:25:27;4.30;;;2.63;;
76202;SDS011;64985;46.364;17.008;2022-11-25T13:28:36;3.25;;;2.72;;
76202;SDS011;64985;46.364;17.008;2022-11-25T13:38:37;3.42;;;2.72;;
76202;SDS011;64985;46.364;17.008;2022-11-25T13:42:00;3.38;;;2.55;;
76202;SDS011;64985;46.364;17.008;2022-11-25T13:48:35;2.72;;;2.03;;
76202;SDS011;64985;46.364;17.008;2022-11-25T13:51:39;2.60;;;2.00;;
76202;SDS011;64985;46.364;17.008;2022-11-25T13:54:52;2.85;;;1.98;;
76202;SDS011;64985;46.364;17.008;2022-11-25T14:01:23;2.85;;;1.98;;
76202;SDS011;64985;46.364;17.008;2022-11-25T14:04:41;3.95;;;2.55;;
76202;SDS011;64985;46.364;17.008;2022-11-25T14:24:41;2.85;;;1.48;;
76202;SDS011;64985;46.364;17.008;2022-11-25T14:28:03;2.70;;;1.92;;
76202;SDS011;64985;46.364;17.008;2022-11-25T14:31:39;2.90;;;1.70;;
76202;SDS011;64985;46.364;17.008;2022-11-25T14:34:49;1.88;;;1.40;;
76202;SDS011;64985;46.364;17.008;2022-11-25T14:38:08;1.20;;;1.10;;
76202;SDS011;64985;46.364;17.008;2022-11-25T14:41:27;2.08;;;1.27;;
76202;SDS011;64985;46.364;17.008;2022-11-25T14:44:52;1.85;;;1.30;;
76202;SDS011;64985;46.364;17.008;2022-11-25T14:51:15;1.33;;;1.15;;
76202;SDS011;64985;46.364;17.008;2022-11-25T14:54:19;2.53;;;1.33;;
76202;SDS011;64985;46.364;17.008;2022-11-25T14:57:23;1.67;;;1.40;;
76202;SDS011;64985;46.364;17.008;2022-11-25T15:00:29;2.85;;;1.40;;
76202;SDS011;64985;46.364;17.008;2022-11-25T15:03:31;1.75;;;1.50;;
76202;SDS011;64985;46.364;17.008;2022-11-25T15:06:35;2.08;;;1.50;;
76202;SDS011;64985;46.364;17.008;2022-11-25T15:09:41;1.58;;;1.48;;
76202;SDS011;64985;46.364;17.008;2022-11-25T15:12:43;1.40;;;1.30;;
76202;SDS011;64985;46.364;17.008;2022-11-25T15:15:51;2.10;;;1.40;;
76202;SDS011;64985;46.364;17.008;2022-11-25T15:18:57;2.42;;;1.63;;
76202;SDS011;64985;46.364;17.008;2022-11-25T15:22:03;3.97;;;1.58;;
76202;SDS011;64985;46.364;17.008;2022-11-25T15:25:24;3.05;;;1.65;;
76202;SDS011;64985;46.364;17.008;2022-11-25T15:28:35;6.15;;;1.70;;
76202;SDS011;64985;46.364;17.008;2022-11-25T15:31:39;3.10;;;2.03;;
76202;SDS011;64985;46.364;17.008;2022-11-25T15:34:45;2.60;;;1.42;;
76202;SDS011;64985;46.364;17.008;2022-11-25T15:37:47;3.53;;;1.85;;
76202;SDS011;64985;46.364;17.008;2022-11-25T15:40:53;3.45;;;1.52;;
76202;SDS011;64985;46.364;17.008;2022-11-25T15:43:57;1.83;;;1.70;;
76202;SDS011;64985;46.364;17.008;2022-11-25T15:47:06;2.75;;;1.70;;
76202;SDS011;64985;46.364;17.008;2022-11-25T15:50:17;2.40;;;2.15;;
76202;SDS011;64985;46.364;17.008;2022-11-25T15:53:25;2.63;;;2.10;;
76202;SDS011;64985;46.364;17.008;2022-11-25T15:56:34;1.70;;;1.60;;
76202;SDS011;64985;46.364;17.008;2022-11-25T16:02:56;3.00;;;2.58;;
76202;SDS011;64985;46.364;17.008;2022-11-25T16:05:59;5.93;;;3.60;;
76202;SDS011;64985;46.364;17.008;2022-11-25T16:09:03;18.50;;;13.45;;
76202;SDS011;64985;46.364;17.008;2022-11-25T16:12:20;10.98;;;6.95;;
76202;SDS011;64985;46.364;17.008;2022-11-25T16:15:37;6.65;;;4.57;;
76202;SDS011;64985;46.364;17.008;2022-11-25T16:19:05;7.90;;;4.43;;
76202;SDS011;64985;46.364;17.008;2022-11-25T16:22:17;4.78;;;3.63;;
76202;SDS011;64985;46.364;17.008;2022-11-25T16:25:20;3.70;;;3.03;;
76202;SDS011;64985;46.364;17.008;2022-11-25T16:31:25;1.63;;;1.35;;
76202;SDS011;64985;46.364;17.008;2022-11-25T16:34:28;1.42;;;1.25;;
76202;SDS011;64985;46.364;17.008;2022-11-25T16:37:31;1.98;;;1.35;;
76202;SDS011;64985;46.364;17.008;2022-11-25T16:40:36;1.55;;;1.38;;
76202;SDS011;64985;46.364;17.008;2022-11-25T16:43:39;4.20;;;1.73;;
76202;SDS011;64985;46.364;17.008;2022-11-25T16:46:41;1.63;;;1.52;;
76202;SDS011;64985;46.364;17.008;2022-11-25T16:49:44;3.50;;;1.60;;
76202;SDS011;64985;46.364;17.008;2022-11-25T16:52:47;2.15;;;1.95;;
76202;SDS011;64985;46.364;17.008;2022-11-25T16:55:50;3.05;;;2.83;;
76202;SDS011;64985;46.364;17.008;2022-11-25T16:58:52;5.25;;;4.47;;
76202;SDS011;64985;46.364;17.008;2022-11-25T17:01:55;3.88;;;3.50;;
76202;SDS011;64985;46.364;17.008;2022-11-25T17:05:05;6.80;;;6.20;;
76202;SDS011;64985;46.364;17.008;2022-11-25T17:08:19;5.85;;;5.25;;
76202;SDS011;64985;46.364;17.008;2022-11-25T17:11:29;6.38;;;4.72;;
76202;SDS011;64985;46.364;17.008;2022-11-25T17:14:35;4.20;;;3.72;;
76202;SDS011;64985;46.364;17.008;2022-11-25T17:17:38;4.43;;;3.60;;
76202;SDS011;64985;46.364;17.008;2022-11-25T17:20:41;4.15;;;3.63;;
76202;SDS011;64985;46.364;17.008;2022-11-25T17:23:44;3.45;;;3.15;;
76202;SDS011;64985;46.364;17.008;2022-11-25T17:26:52;3.58;;;3.10;;
76202;SDS011;64985;46.364;17.008;2022-11-25T17:29:58;5.10;;;3.03;;
76202;SDS011;64985;46.364;17.008;2022-11-25T17:33:05;3.10;;;2.80;;
76202;SDS011;64985;46.364;17.008;2022-11-25T17:36:11;2.30;;;1.95;;
76202;SDS011;64985;46.364;17.008;2022-11-25T17:39:13;1.75;;;1.63;;
76202;SDS011;64985;46.364;17.008;2022-11-25T17:42:16;2.50;;;1.85;;
76202;SDS011;64985;46.364;17.008;2022-11-25T17:45:23;2.08;;;1.88;;
76202;SDS011;64985;46.364;17.008;2022-11-25T17:48:25;3.22;;;2.40;;
76202;SDS011;64985;46.364;17.008;2022-11-25T17:51:28;2.75;;;2.55;;
76202;SDS011;64985;46.364;17.008;2022-11-25T17:54:30;5.25;;;2.50;;
76202;SDS011;64985;46.364;17.008;2022-11-25T17:57:32;2.08;;;1.80;;
76202;SDS011;64985;46.364;17.008;2022-11-25T18:00:35;1.70;;;1.50;;
76202;SDS011;64985;46.364;17.008;2022-11-25T18:03:40;3.03;;;2.55;;
76202;SDS011;64985;46.364;17.008;2022-11-25T18:06:42;3.33;;;2.47;;
76202;SDS011;64985;46.364;17.008;2022-11-25T18:09:45;3.53;;;2.80;;
76202;SDS011;64985;46.364;17.008;2022-11-25T18:15:50;2.70;;;2.30;;
76202;SDS011;64985;46.364;17.008;2022-11-25T18:21:57;3.05;;;2.10;;
76202;SDS011;64985;46.364;17.008;2022-11-25T18:25:01;2.33;;;2.10;;
76202;SDS011;64985;46.364;17.008;2022-11-25T18:28:13;2.65;;;2.33;;
76202;SDS011;64985;46.364;17.008;2022-11-25T18:31:22;4.55;;;2.78;;
76202;SDS011;64985;46.364;17.008;2022-11-25T18:34:25;4.30;;;2.80;;
76202;SDS011;64985;46.364;17.008;2022-11-25T18:37:28;3.60;;;3.08;;
76202;SDS011;64985;46.364;17.008;2022-11-25T18:43:33;4.20;;;3.30;;
76202;SDS011;64985;46.364;17.008;2022-11-25T18:46:38;3.95;;;3.55;;
76202;SDS011;64985;46.364;17.008;2022-11-25T18:49:40;3.92;;;3.35;;
76202;SDS011;64985;46.364;17.008;2022-11-25T18:52:43;3.15;;;2.55;;
76202;SDS011;64985;46.364;17.008;2022-11-25T18:55:46;3.30;;;2.75;;
76202;SDS011;64985;46.364;17.008;2022-11-25T18:58:49;3.97;;;2.53;;
76202;SDS011;64985;46.364;17.008;2022-11-25T19:01:53;4.75;;;2.83;;
76202;SDS011;64985;46.364;17.008;2022-11-25T19:04:56;5.30;;;2.70;;
76202;SDS011;64985;46.364;17.008;2022-11-25T19:07:59;2.90;;;2.60;;
76202;SDS011;64985;46.364;17.008;2022-11-25T19:11:02;2.50;;;2.15;;
76202;SDS011;64985;46.364;17.008;2022-11-25T19:14:06;4.57;;;2.20;;
76202;SDS011;64985;46.364;17.008;2022-11-25T19:17:20;3.08;;;2.20;;
76202;SDS011;64985;46.364;17.008;2022-11-25T19:20:25;4.47;;;2.45;;
76202;SDS011;64985;46.364;17.008;2022-11-25T19:23:29;3.45;;;2.70;;
76202;SDS011;64985;46.364;17.008;2022-11-25T19:26:33;4.03;;;3.53;;
76202;SDS011;64985;46.364;17.008;2022-11-25T19:29:42;4.22;;;3.70;;
76202;SDS011;64985;46.364;17.008;2022-11-25T19:32:48;6.25;;;3.63;;
76202;SDS011;64985;46.364;17.008;2022-11-25T19:35:57;4.45;;;2.95;;
76202;SDS011;64985;46.364;17.008;2022-11-25T19:38:59;5.82;;;3.50;;
76202;SDS011;64985;46.364;17.008;2022-11-25T19:42:02;4.03;;;3.50;;
76202;SDS011;64985;46.364;17.008;2022-11-25T19:45:04;3.72;;;2.95;;
76202;SDS011;64985;46.364;17.008;2022-11-25T19:48:10;5.10;;;4.13;;
76202;SDS011;64985;46.364;17.008;2022-11-25T19:51:15;3.95;;;3.15;;
76202;SDS011;64985;46.364;17.008;2022-11-25T19:54:18;4.35;;;2.72;;
76202;SDS011;64985;46.364;17.008;2022-11-25T19:57:22;3.15;;;2.83;;
76202;SDS011;64985;46.364;17.008;2022-11-25T20:00:25;4.63;;;3.03;;
76202;SDS011;64985;46.364;17.008;2022-11-25T20:03:28;3.55;;;2.47;;
76202;SDS011;64985;46.364;17.008;2022-11-25T20:06:31;3.53;;;2.13;;
76202;SDS011;64985;46.364;17.008;2022-11-25T20:09:34;2.53;;;2.20;;
76202;SDS011;64985;46.364;17.008;2022-11-25T20:15:39;4.55;;;3.95;;
76202;SDS011;64985;46.364;17.008;2022-11-25T20:18:42;5.53;;;4.60;;
76202;SDS011;64985;46.364;17.008;2022-11-25T20:21:45;5.60;;;4.90;;
76202;SDS011;64985;46.364;17.008;2022-11-25T20:24:49;8.32;;;5.95;;
76202;SDS011;64985;46.364;17.008;2022-11-25T20:27:52;5.60;;;5.00;;
76202;SDS011;64985;46.364;17.008;2022-11-25T20:30:55;6.28;;;5.63;;
76202;SDS011;64985;46.364;17.008;2022-11-25T20:34:00;7.20;;;5.57;;
76202;SDS011;64985;46.364;17.008;2022-11-25T20:40:09;5.85;;;4.95;;
76202;SDS011;64985;46.364;17.008;2022-11-25T20:46:40;8.10;;;6.32;;
76202;SDS011;64985;46.364;17.008;2022-11-25T20:49:43;6.05;;;3.45;;
76202;SDS011;64985;46.364;17.008;2022-11-25T20:52:47;3.22;;;2.88;;
76202;SDS011;64985;46.364;17.008;2022-11-25T20:55:50;4.28;;;3.08;;